sensor_id;sensor_type;location;lat;lon;timestamp;P1;durP1;ratioP1;P2;durP2;ratioP2
42110;SDS011;27766;52.174;5.456;2024-02-14T00:01:13;8.65;;;5.35;;
42110;SDS011;27766;52.174;5.456;2024-02-14T00:03:40;7.65;;;5.90;;
42110;SDS011;27766;52.174;5.456;2024-02-14T00:06:07;9.75;;;6.45;;
42110;SDS011;27766;52.174;5.456;2024-02-14T00:08:35;5.88;;;5.38;;
42110;SDS011;27766;52.174;5.456;2024-02-14T00:11:02;7.47;;;6.13;;
42110;SDS011;27766;52.174;5.456;2024-02-14T00:13:30;8.13;;;6.10;;
42110;SDS011;27766;52.174;5.456;2024-02-14T00:15:59;6.70;;;5.35;;
42110;SDS011;27766;52.174;5.456;2024-02-14T00:18:27;7.65;;;5.93;;
42110;SDS011;27766;52.174;5.456;2024-02-14T00:20:55;6.07;;;5.28;;
42110;SDS011;27766;52.174;5.456;2024-02-14T00:23:22;6.47;;;5.05;;
42110;SDS011;27766;52.174;5.456;2024-02-14T00:25:49;8.10;;;5.60;;
42110;SDS011;27766;52.174;5.456;2024-02-14T00:28:16;5.95;;;5.13;;
42110;SDS011;27766;52.174;5.456;2024-02-14T00:30:44;6.63;;;5.85;;
42110;SDS011;27766;52.174;5.456;2024-02-14T00:33:12;6.00;;;5.38;;
42110;SDS011;27766;52.174;5.456;2024-02-14T00:35:40;5.68;;;4.85;;
42110;SDS011;27766;52.174;5.456;2024-02-14T00:38:08;7.38;;;5.65;;
42110;SDS011;27766;52.174;5.456;2024-02-14T00:40:35;9.93;;;6.03;;
42110;SDS011;27766;52.174;5.456;2024-02-14T00:43:02;7.68;;;6.18;;
42110;SDS011;27766;52.174;5.456;2024-02-14T00:45:29;8.77;;;7.30;;
42110;SDS011;27766;52.174;5.456;2024-02-14T00:47:56;8.13;;;6.70;;
42110;SDS011;27766;52.174;5.456;2024-02-14T00:50:24;8.23;;;7.40;;
42110;SDS011;27766;52.174;5.456;2024-02-14T00:52:52;8.38;;;6.63;;
42110;SDS011;27766;52.174;5.456;2024-02-14T00:55:19;8.82;;;7.40;;
42110;SDS011;27766;52.174;5.456;2024-02-14T00:57:46;11.18;;;7.80;;
42110;SDS011;27766;52.174;5.456;2024-02-14T01:00:13;8.88;;;7.32;;
42110;SDS011;27766;52.174;5.456;2024-02-14T01:02:41;11.13;;;7.93;;
42110;SDS011;27766;52.174;5.456;2024-02-14T01:05:11;8.75;;;7.68;;
42110;SDS011;27766;52.174;5.456;2024-02-14T01:07:39;8.85;;;7.88;;
42110;SDS011;27766;52.174;5.456;2024-02-14T01:10:06;9.55;;;8.63;;
42110;SDS011;27766;52.174;5.456;2024-02-14T01:12:34;10.43;;;8.95;;
42110;SDS011;27766;52.174;5.456;2024-02-14T01:15:01;10.43;;;9.25;;
42110;SDS011;27766;52.174;5.456;2024-02-14T01:17:29;10.60;;;8.98;;
42110;SDS011;27766;52.174;5.456;2024-02-14T01:19:56;13.18;;;10.23;;
42110;SDS011;27766;52.174;5.456;2024-02-14T01:22:24;12.55;;;10.32;;
42110;SDS011;27766;52.174;5.456;2024-02-14T01:24:52;14.27;;;11.25;;
42110;SDS011;27766;52.174;5.456;2024-02-14T01:27:19;11.23;;;9.93;;
42110;SDS011;27766;52.174;5.456;2024-02-14T01:29:48;12.23;;;10.07;;
42110;SDS011;27766;52.174;5.456;2024-02-14T01:32:15;11.63;;;10.07;;
42110;SDS011;27766;52.174;5.456;2024-02-14T01:34:43;12.98;;;11.43;;
42110;SDS011;27766;52.174;5.456;2024-02-14T01:37:10;12.95;;;10.70;;
42110;SDS011;27766;52.174;5.456;2024-02-14T01:39:38;13.27;;;11.88;;
42110;SDS011;27766;52.174;5.456;2024-02-14T01:42:05;12.82;;;10.93;;
42110;SDS011;27766;52.174;5.456;2024-02-14T01:44:34;12.25;;;10.95;;
42110;SDS011;27766;52.174;5.456;2024-02-14T01:47:03;14.18;;;11.27;;
42110;SDS011;27766;52.174;5.456;2024-02-14T01:49:30;13.38;;;11.50;;
42110;SDS011;27766;52.174;5.456;2024-02-14T01:52:00;13.40;;;11.38;;
42110;SDS011;27766;52.174;5.456;2024-02-14T01:54:30;12.75;;;11.00;;
42110;SDS011;27766;52.174;5.456;2024-02-14T01:56:57;13.65;;;11.02;;
42110;SDS011;27766;52.174;5.456;2024-02-14T01:59:25;14.63;;;11.18;;
42110;SDS011;27766;52.174;5.456;2024-02-14T02:01:53;16.75;;;11.45;;
42110;SDS011;27766;52.174;5.456;2024-02-14T02:04:20;13.43;;;10.93;;
42110;SDS011;27766;52.174;5.456;2024-02-14T02:06:48;15.43;;;11.35;;
42110;SDS011;27766;52.174;5.456;2024-02-14T02:09:15;14.10;;;12.55;;
42110;SDS011;27766;52.174;5.456;2024-02-14T02:11:46;16.23;;;12.27;;
42110;SDS011;27766;52.174;5.456;2024-02-14T02:14:15;13.52;;;12.13;;
42110;SDS011;27766;52.174;5.456;2024-02-14T02:16:46;15.18;;;12.57;;
42110;SDS011;27766;52.174;5.456;2024-02-14T02:19:13;14.38;;;12.27;;
42110;SDS011;27766;52.174;5.456;2024-02-14T02:21:42;15.68;;;13.73;;
42110;SDS011;27766;52.174;5.456;2024-02-14T02:24:13;16.00;;;13.05;;
42110;SDS011;27766;52.174;5.456;2024-02-14T02:26:40;15.15;;;13.00;;
42110;SDS011;27766;52.174;5.456;2024-02-14T02:29:08;14.63;;;12.57;;
42110;SDS011;27766;52.174;5.456;2024-02-14T02:31:35;14.70;;;12.93;;
42110;SDS011;27766;52.174;5.456;2024-02-14T02:34:02;14.32;;;12.82;;
42110;SDS011;27766;52.174;5.456;2024-02-14T02:36:29;15.48;;;12.45;;
42110;SDS011;27766;52.174;5.456;2024-02-14T02:38:57;12.63;;;11.30;;
42110;SDS011;27766;52.174;5.456;2024-02-14T02:41:25;15.27;;;11.80;;
42110;SDS011;27766;52.174;5.456;2024-02-14T02:43:52;13.35;;;11.95;;
42110;SDS011;27766;52.174;5.456;2024-02-14T02:46:21;14.10;;;11.93;;
42110;SDS011;27766;52.174;5.456;2024-02-14T02:48:49;16.13;;;13.00;;
42110;SDS011;27766;52.174;5.456;2024-02-14T02:51:17;13.88;;;12.43;;
42110;SDS011;27766;52.174;5.456;2024-02-14T02:53:44;13.35;;;11.75;;
42110;SDS011;27766;52.174;5.456;2024-02-14T02:56:12;14.00;;;12.07;;
42110;SDS011;27766;52.174;5.456;2024-02-14T02:58:41;13.60;;;11.90;;
42110;SDS011;27766;52.174;5.456;2024-02-14T03:01:11;14.48;;;11.73;;
42110;SDS011;27766;52.174;5.456;2024-02-14T03:03:38;13.43;;;11.43;;
42110;SDS011;27766;52.174;5.456;2024-02-14T03:06:08;14.07;;;11.70;;
42110;SDS011;27766;52.174;5.456;2024-02-14T03:08:36;13.52;;;11.98;;
42110;SDS011;27766;52.174;5.456;2024-02-14T03:11:04;15.88;;;11.32;;
42110;SDS011;27766;52.174;5.456;2024-02-14T03:13:32;13.40;;;11.30;;
42110;SDS011;27766;52.174;5.456;2024-02-14T03:16:00;13.23;;;10.65;;
42110;SDS011;27766;52.174;5.456;2024-02-14T03:18:27;17.08;;;11.82;;
42110;SDS011;27766;52.174;5.456;2024-02-14T03:20:54;11.73;;;10.57;;
42110;SDS011;27766;52.174;5.456;2024-02-14T03:23:22;12.85;;;10.77;;
42110;SDS011;27766;52.174;5.456;2024-02-14T03:25:50;11.48;;;10.30;;
42110;SDS011;27766;52.174;5.456;2024-02-14T03:28:18;14.30;;;12.13;;
42110;SDS011;27766;52.174;5.456;2024-02-14T03:30:46;15.52;;;12.68;;
42110;SDS011;27766;52.174;5.456;2024-02-14T03:33:14;13.32;;;11.32;;
42110;SDS011;27766;52.174;5.456;2024-02-14T03:35:42;15.98;;;13.00;;
42110;SDS011;27766;52.174;5.456;2024-02-14T03:38:09;15.73;;;13.18;;
42110;SDS011;27766;52.174;5.456;2024-02-14T03:40:36;15.52;;;13.93;;
42110;SDS011;27766;52.174;5.456;2024-02-14T03:43:05;21.40;;;14.95;;
42110;SDS011;27766;52.174;5.456;2024-02-14T03:45:32;20.23;;;15.48;;
42110;SDS011;27766;52.174;5.456;2024-02-14T03:47:59;19.13;;;13.98;;
42110;SDS011;27766;52.174;5.456;2024-02-14T03:50:26;19.38;;;15.50;;
42110;SDS011;27766;52.174;5.456;2024-02-14T03:52:54;23.85;;;15.32;;
42110;SDS011;27766;52.174;5.456;2024-02-14T03:55:22;21.38;;;16.02;;
42110;SDS011;27766;52.174;5.456;2024-02-14T03:57:50;18.60;;;14.15;;
42110;SDS011;27766;52.174;5.456;2024-02-14T04:00:17;19.17;;;14.90;;
42110;SDS011;27766;52.174;5.456;2024-02-14T04:02:45;24.02;;;15.15;;
42110;SDS011;27766;52.174;5.456;2024-02-14T04:05:15;17.05;;;15.07;;
42110;SDS011;27766;52.174;5.456;2024-02-14T04:07:43;19.80;;;14.15;;
42110;SDS011;27766;52.174;5.456;2024-02-14T04:10:16;21.27;;;14.50;;
42110;SDS011;27766;52.174;5.456;2024-02-14T04:12:43;27.30;;;15.98;;
42110;SDS011;27766;52.174;5.456;2024-02-14T04:15:10;22.50;;;15.32;;
42110;SDS011;27766;52.174;5.456;2024-02-14T04:17:39;18.33;;;14.93;;
42110;SDS011;27766;52.174;5.456;2024-02-14T04:20:06;24.90;;;15.45;;
42110;SDS011;27766;52.174;5.456;2024-02-14T04:22:34;25.05;;;17.02;;
42110;SDS011;27766;52.174;5.456;2024-02-14T04:25:01;29.20;;;16.63;;
42110;SDS011;27766;52.174;5.456;2024-02-14T04:27:28;24.75;;;17.23;;
42110;SDS011;27766;52.174;5.456;2024-02-14T04:29:55;26.77;;;16.13;;
42110;SDS011;27766;52.174;5.456;2024-02-14T04:32:23;22.77;;;16.38;;
42110;SDS011;27766;52.174;5.456;2024-02-14T04:34:51;34.75;;;17.80;;
42110;SDS011;27766;52.174;5.456;2024-02-14T04:37:19;25.65;;;16.63;;
42110;SDS011;27766;52.174;5.456;2024-02-14T04:39:46;25.48;;;16.45;;
42110;SDS011;27766;52.174;5.456;2024-02-14T04:42:13;21.90;;;16.70;;
42110;SDS011;27766;52.174;5.456;2024-02-14T04:44:40;23.77;;;16.55;;
42110;SDS011;27766;52.174;5.456;2024-02-14T04:47:08;23.02;;;17.08;;
42110;SDS011;27766;52.174;5.456;2024-02-14T04:49:36;22.08;;;16.52;;
42110;SDS011;27766;52.174;5.456;2024-02-14T04:52:04;20.27;;;16.13;;
42110;SDS011;27766;52.174;5.456;2024-02-14T04:54:31;20.75;;;16.15;;
42110;SDS011;27766;52.174;5.456;2024-02-14T04:56:58;23.90;;;16.70;;
42110;SDS011;27766;52.174;5.456;2024-02-14T04:59:29;22.15;;;15.95;;
42110;SDS011;27766;52.174;5.456;2024-02-14T05:01:56;23.40;;;15.77;;
42110;SDS011;27766;52.174;5.456;2024-02-14T05:04:24;26.15;;;16.17;;
42110;SDS011;27766;52.174;5.456;2024-02-14T05:06:51;27.55;;;15.98;;
42110;SDS011;27766;52.174;5.456;2024-02-14T05:09:24;28.88;;;19.52;;
42110;SDS011;27766;52.174;5.456;2024-02-14T05:11:51;28.00;;;17.02;;
42110;SDS011;27766;52.174;5.456;2024-02-14T05:14:19;35.60;;;17.90;;
42110;SDS011;27766;52.174;5.456;2024-02-14T05:16:46;26.95;;;18.08;;
42110;SDS011;27766;52.174;5.456;2024-02-14T05:19:14;24.70;;;17.73;;
42110;SDS011;27766;52.174;5.456;2024-02-14T05:21:42;26.45;;;17.90;;
42110;SDS011;27766;52.174;5.456;2024-02-14T05:24:09;34.50;;;17.85;;
42110;SDS011;27766;52.174;5.456;2024-02-14T05:26:37;26.35;;;17.73;;
42110;SDS011;27766;52.174;5.456;2024-02-14T05:29:04;25.10;;;17.73;;
42110;SDS011;27766;52.174;5.456;2024-02-14T05:31:42;25.70;;;17.83;;
42110;SDS011;27766;52.174;5.456;2024-02-14T05:34:11;23.08;;;16.65;;
42110;SDS011;27766;52.174;5.456;2024-02-14T05:36:40;28.20;;;17.02;;
42110;SDS011;27766;52.174;5.456;2024-02-14T05:39:09;25.48;;;16.38;;
42110;SDS011;27766;52.174;5.456;2024-02-14T05:41:37;23.20;;;16.67;;
42110;SDS011;27766;52.174;5.456;2024-02-14T05:44:04;22.88;;;17.27;;
42110;SDS011;27766;52.174;5.456;2024-02-14T05:46:31;28.08;;;18.15;;
42110;SDS011;27766;52.174;5.456;2024-02-14T05:48:58;23.70;;;17.88;;
42110;SDS011;27766;52.174;5.456;2024-02-14T05:51:27;23.65;;;17.67;;
42110;SDS011;27766;52.174;5.456;2024-02-14T05:53:54;24.55;;;17.45;;
42110;SDS011;27766;52.174;5.456;2024-02-14T05:56:21;23.85;;;16.92;;
42110;SDS011;27766;52.174;5.456;2024-02-14T05:58:48;21.73;;;16.02;;
42110;SDS011;27766;52.174;5.456;2024-02-14T06:01:15;21.25;;;15.98;;
42110;SDS011;27766;52.174;5.456;2024-02-14T06:03:43;20.25;;;14.73;;
42110;SDS011;27766;52.174;5.456;2024-02-14T06:06:10;22.35;;;15.32;;
42110;SDS011;27766;52.174;5.456;2024-02-14T06:08:39;21.40;;;14.32;;
42110;SDS011;27766;52.174;5.456;2024-02-14T06:11:06;18.83;;;13.68;;
42110;SDS011;27766;52.174;5.456;2024-02-14T06:13:34;21.73;;;14.10;;
42110;SDS011;27766;52.174;5.456;2024-02-14T06:16:02;20.10;;;13.52;;
42110;SDS011;27766;52.174;5.456;2024-02-14T06:18:30;14.65;;;12.20;;
42110;SDS011;27766;52.174;5.456;2024-02-14T06:20:58;16.00;;;12.73;;
42110;SDS011;27766;52.174;5.456;2024-02-14T06:23:26;18.88;;;13.55;;
42110;SDS011;27766;52.174;5.456;2024-02-14T06:25:53;15.13;;;12.60;;
42110;SDS011;27766;52.174;5.456;2024-02-14T06:28:20;14.95;;;12.95;;
42110;SDS011;27766;52.174;5.456;2024-02-14T06:30:47;15.00;;;13.05;;
42110;SDS011;27766;52.174;5.456;2024-02-14T06:33:15;16.60;;;13.00;;
42110;SDS011;27766;52.174;5.456;2024-02-14T06:35:43;14.68;;;13.10;;
42110;SDS011;27766;52.174;5.456;2024-02-14T06:38:11;17.27;;;12.57;;
42110;SDS011;27766;52.174;5.456;2024-02-14T06:40:39;14.02;;;11.90;;
42110;SDS011;27766;52.174;5.456;2024-02-14T06:43:07;16.63;;;12.90;;
42110;SDS011;27766;52.174;5.456;2024-02-14T06:45:35;15.77;;;12.25;;
42110;SDS011;27766;52.174;5.456;2024-02-14T06:48:02;14.43;;;12.88;;
42110;SDS011;27766;52.174;5.456;2024-02-14T06:50:29;15.90;;;12.95;;
42110;SDS011;27766;52.174;5.456;2024-02-14T06:52:57;15.20;;;12.35;;
42110;SDS011;27766;52.174;5.456;2024-02-14T06:55:27;20.02;;;13.30;;
42110;SDS011;27766;52.174;5.456;2024-02-14T06:57:54;13.93;;;12.20;;
42110;SDS011;27766;52.174;5.456;2024-02-14T07:00:21;16.92;;;11.45;;
42110;SDS011;27766;52.174;5.456;2024-02-14T07:02:48;14.90;;;13.07;;
42110;SDS011;27766;52.174;5.456;2024-02-14T07:05:16;18.67;;;14.07;;
42110;SDS011;27766;52.174;5.456;2024-02-14T07:07:43;18.98;;;15.00;;
42110;SDS011;27766;52.174;5.456;2024-02-14T07:10:10;21.35;;;15.68;;
42110;SDS011;27766;52.174;5.456;2024-02-14T07:12:40;19.17;;;16.35;;
42110;SDS011;27766;52.174;5.456;2024-02-14T07:15:08;20.95;;;17.30;;
42110;SDS011;27766;52.174;5.456;2024-02-14T07:17:35;20.25;;;16.65;;
42110;SDS011;27766;52.174;5.456;2024-02-14T07:20:03;24.73;;;17.08;;
42110;SDS011;27766;52.174;5.456;2024-02-14T07:22:31;20.65;;;17.25;;
42110;SDS011;27766;52.174;5.456;2024-02-14T07:24:58;21.30;;;15.70;;
42110;SDS011;27766;52.174;5.456;2024-02-14T07:27:26;23.25;;;17.92;;
42110;SDS011;27766;52.174;5.456;2024-02-14T07:29:53;22.33;;;17.95;;
42110;SDS011;27766;52.174;5.456;2024-02-14T07:32:21;23.48;;;17.80;;
42110;SDS011;27766;52.174;5.456;2024-02-14T07:34:48;31.60;;;20.10;;
42110;SDS011;27766;52.174;5.456;2024-02-14T07:37:16;25.58;;;19.13;;
42110;SDS011;27766;52.174;5.456;2024-02-14T07:39:46;24.08;;;19.13;;
42110;SDS011;27766;52.174;5.456;2024-02-14T07:42:14;24.58;;;19.13;;
42110;SDS011;27766;52.174;5.456;2024-02-14T07:44:42;26.15;;;18.90;;
42110;SDS011;27766;52.174;5.456;2024-02-14T07:47:09;24.35;;;17.27;;
42110;SDS011;27766;52.174;5.456;2024-02-14T07:49:37;24.90;;;17.83;;
42110;SDS011;27766;52.174;5.456;2024-02-14T07:52:04;22.23;;;16.80;;
42110;SDS011;27766;52.174;5.456;2024-02-14T07:54:31;20.70;;;17.20;;
42110;SDS011;27766;52.174;5.456;2024-02-14T07:56:59;29.10;;;17.83;;
42110;SDS011;27766;52.174;5.456;2024-02-14T07:59:26;19.52;;;16.27;;
42110;SDS011;27766;52.174;5.456;2024-02-14T08:01:57;23.90;;;17.52;;
42110;SDS011;27766;52.174;5.456;2024-02-14T08:04:24;23.67;;;17.83;;
42110;SDS011;27766;52.174;5.456;2024-02-14T08:06:51;21.73;;;17.85;;
42110;SDS011;27766;52.174;5.456;2024-02-14T08:09:19;23.52;;;18.85;;
42110;SDS011;27766;52.174;5.456;2024-02-14T08:11:46;26.98;;;20.88;;
42110;SDS011;27766;52.174;5.456;2024-02-14T08:14:13;24.88;;;19.77;;
42110;SDS011;27766;52.174;5.456;2024-02-14T08:16:41;26.30;;;17.83;;
42110;SDS011;27766;52.174;5.456;2024-02-14T08:19:09;25.55;;;18.98;;
42110;SDS011;27766;52.174;5.456;2024-02-14T08:21:36;29.75;;;19.27;;
42110;SDS011;27766;52.174;5.456;2024-02-14T08:24:03;26.70;;;18.13;;
42110;SDS011;27766;52.174;5.456;2024-02-14T08:26:32;25.10;;;18.58;;
42110;SDS011;27766;52.174;5.456;2024-02-14T08:28:59;26.05;;;18.48;;
42110;SDS011;27766;52.174;5.456;2024-02-14T08:31:27;24.55;;;19.08;;
42110;SDS011;27766;52.174;5.456;2024-02-14T08:33:54;30.80;;;18.23;;
42110;SDS011;27766;52.174;5.456;2024-02-14T08:36:22;21.23;;;18.27;;
42110;SDS011;27766;52.174;5.456;2024-02-14T08:38:49;20.83;;;17.42;;
42110;SDS011;27766;52.174;5.456;2024-02-14T08:41:16;24.98;;;18.17;;
42110;SDS011;27766;52.174;5.456;2024-02-14T08:43:45;21.10;;;16.45;;
42110;SDS011;27766;52.174;5.456;2024-02-14T08:46:14;24.75;;;17.52;;
42110;SDS011;27766;52.174;5.456;2024-02-14T08:48:43;27.05;;;18.30;;
42110;SDS011;27766;52.174;5.456;2024-02-14T08:51:16;24.58;;;17.73;;
42110;SDS011;27766;52.174;5.456;2024-02-14T08:53:44;24.85;;;18.42;;
42110;SDS011;27766;52.174;5.456;2024-02-14T08:56:13;26.90;;;18.40;;
42110;SDS011;27766;52.174;5.456;2024-02-14T08:58:41;23.38;;;17.40;;
42110;SDS011;27766;52.174;5.456;2024-02-14T09:01:11;22.52;;;16.63;;
42110;SDS011;27766;52.174;5.456;2024-02-14T09:03:42;26.52;;;16.73;;
42110;SDS011;27766;52.174;5.456;2024-02-14T09:06:16;18.83;;;15.80;;
42110;SDS011;27766;52.174;5.456;2024-02-14T09:08:47;19.05;;;14.73;;
42110;SDS011;27766;52.174;5.456;2024-02-14T09:11:15;18.80;;;14.35;;
42110;SDS011;27766;52.174;5.456;2024-02-14T09:13:43;16.10;;;14.30;;
42110;SDS011;27766;52.174;5.456;2024-02-14T09:16:10;17.08;;;13.13;;
42110;SDS011;27766;52.174;5.456;2024-02-14T09:18:38;16.33;;;12.70;;
42110;SDS011;27766;52.174;5.456;2024-02-14T09:21:06;14.43;;;12.82;;
42110;SDS011;27766;52.174;5.456;2024-02-14T09:23:34;16.35;;;12.70;;
42110;SDS011;27766;52.174;5.456;2024-02-14T09:26:01;15.35;;;12.63;;
42110;SDS011;27766;52.174;5.456;2024-02-14T09:28:29;19.33;;;13.60;;
42110;SDS011;27766;52.174;5.456;2024-02-14T09:30:56;17.63;;;12.75;;
42110;SDS011;27766;52.174;5.456;2024-02-14T09:33:24;18.95;;;12.88;;
42110;SDS011;27766;52.174;5.456;2024-02-14T09:35:52;14.23;;;12.73;;
42110;SDS011;27766;52.174;5.456;2024-02-14T09:38:20;16.63;;;13.55;;
42110;SDS011;27766;52.174;5.456;2024-02-14T09:40:48;15.57;;;13.70;;
42110;SDS011;27766;52.174;5.456;2024-02-14T09:45:53;17.65;;;14.50;;
42110;SDS011;27766;52.174;5.456;2024-02-14T09:48:21;20.10;;;14.40;;
42110;SDS011;27766;52.174;5.456;2024-02-14T09:50:49;16.83;;;13.07;;
42110;SDS011;27766;52.174;5.456;2024-02-14T09:53:20;20.88;;;14.57;;
42110;SDS011;27766;52.174;5.456;2024-02-14T09:55:48;17.23;;;14.10;;
42110;SDS011;27766;52.174;5.456;2024-02-14T09:58:17;16.45;;;14.60;;
42110;SDS011;27766;52.174;5.456;2024-02-14T10:00:44;18.13;;;14.80;;
42110;SDS011;27766;52.174;5.456;2024-02-14T10:03:14;20.50;;;15.50;;
42110;SDS011;27766;52.174;5.456;2024-02-14T10:05:42;17.95;;;15.82;;
42110;SDS011;27766;52.174;5.456;2024-02-14T10:08:10;24.45;;;18.33;;
42110;SDS011;27766;52.174;5.456;2024-02-14T10:10:38;25.65;;;19.48;;
42110;SDS011;27766;52.174;5.456;2024-02-14T10:13:05;25.38;;;20.27;;
42110;SDS011;27766;52.174;5.456;2024-02-14T10:15:34;29.48;;;19.05;;
42110;SDS011;27766;52.174;5.456;2024-02-14T10:18:04;22.60;;;20.13;;
42110;SDS011;27766;52.174;5.456;2024-02-14T10:20:32;24.23;;;20.05;;
42110;SDS011;27766;52.174;5.456;2024-02-14T10:23:02;30.73;;;21.27;;
42110;SDS011;27766;52.174;5.456;2024-02-14T10:25:30;23.85;;;18.95;;
42110;SDS011;27766;52.174;5.456;2024-02-14T10:28:07;25.55;;;20.25;;
42110;SDS011;27766;52.174;5.456;2024-02-14T10:30:36;23.85;;;18.40;;
42110;SDS011;27766;52.174;5.456;2024-02-14T10:33:07;28.48;;;19.33;;
42110;SDS011;27766;52.174;5.456;2024-02-14T10:35:50;25.58;;;18.42;;
42110;SDS011;27766;52.174;5.456;2024-02-14T10:38:24;26.38;;;19.10;;
42110;SDS011;27766;52.174;5.456;2024-02-14T10:40:53;19.73;;;15.95;;
42110;SDS011;27766;52.174;5.456;2024-02-14T10:43:21;20.27;;;16.70;;
42110;SDS011;27766;52.174;5.456;2024-02-14T10:45:48;24.73;;;16.67;;
42110;SDS011;27766;52.174;5.456;2024-02-14T10:48:17;22.73;;;18.25;;
42110;SDS011;27766;52.174;5.456;2024-02-14T10:50:45;23.90;;;16.42;;
42110;SDS011;27766;52.174;5.456;2024-02-14T10:53:16;20.95;;;17.20;;
42110;SDS011;27766;52.174;5.456;2024-02-14T10:55:45;21.02;;;16.60;;
42110;SDS011;27766;52.174;5.456;2024-02-14T10:58:18;22.13;;;16.35;;
42110;SDS011;27766;52.174;5.456;2024-02-14T11:00:47;20.50;;;16.27;;
42110;SDS011;27766;52.174;5.456;2024-02-14T11:03:14;23.48;;;16.45;;
42110;SDS011;27766;52.174;5.456;2024-02-14T11:05:46;17.17;;;14.80;;
42110;SDS011;27766;52.174;5.456;2024-02-14T11:08:18;19.00;;;15.15;;
42110;SDS011;27766;52.174;5.456;2024-02-14T11:10:55;17.35;;;14.98;;
42110;SDS011;27766;52.174;5.456;2024-02-14T11:13:29;16.15;;;14.13;;
42110;SDS011;27766;52.174;5.456;2024-02-14T11:16:01;19.25;;;14.82;;
42110;SDS011;27766;52.174;5.456;2024-02-14T11:18:29;18.85;;;15.13;;
42110;SDS011;27766;52.174;5.456;2024-02-14T11:20:57;19.25;;;14.93;;
42110;SDS011;27766;52.174;5.456;2024-02-14T11:23:25;18.50;;;14.73;;
42110;SDS011;27766;52.174;5.456;2024-02-14T11:26:00;21.73;;;14.07;;
42110;SDS011;27766;52.174;5.456;2024-02-14T11:28:29;19.55;;;14.65;;
42110;SDS011;27766;52.174;5.456;2024-02-14T11:31:00;15.27;;;13.68;;
42110;SDS011;27766;52.174;5.456;2024-02-14T11:33:30;17.95;;;12.68;;
42110;SDS011;27766;52.174;5.456;2024-02-14T11:35:58;18.00;;;13.13;;
42110;SDS011;27766;52.174;5.456;2024-02-14T11:38:34;14.65;;;13.02;;
42110;SDS011;27766;52.174;5.456;2024-02-14T11:41:01;18.10;;;13.00;;
42110;SDS011;27766;52.174;5.456;2024-02-14T11:43:30;19.02;;;14.02;;
42110;SDS011;27766;52.174;5.456;2024-02-14T11:45:58;14.95;;;12.65;;
42110;SDS011;27766;52.174;5.456;2024-02-14T11:48:25;16.50;;;13.82;;
42110;SDS011;27766;52.174;5.456;2024-02-14T11:50:53;16.20;;;13.25;;
42110;SDS011;27766;52.174;5.456;2024-02-14T11:53:21;14.32;;;12.43;;
42110;SDS011;27766;52.174;5.456;2024-02-14T11:55:48;16.92;;;13.10;;
42110;SDS011;27766;52.174;5.456;2024-02-14T11:58:16;16.58;;;13.90;;
42110;SDS011;27766;52.174;5.456;2024-02-14T12:00:44;18.67;;;15.65;;
42110;SDS011;27766;52.174;5.456;2024-02-14T12:03:17;20.35;;;16.67;;
42110;SDS011;27766;52.174;5.456;2024-02-14T12:05:46;24.40;;;18.50;;
42110;SDS011;27766;52.174;5.456;2024-02-14T12:08:17;20.35;;;16.55;;
42110;SDS011;27766;52.174;5.456;2024-02-14T12:10:45;20.02;;;16.30;;
42110;SDS011;27766;52.174;5.456;2024-02-14T12:13:17;19.85;;;16.02;;
42110;SDS011;27766;52.174;5.456;2024-02-14T12:15:48;20.50;;;15.77;;
42110;SDS011;27766;52.174;5.456;2024-02-14T12:18:18;18.73;;;14.90;;
42110;SDS011;27766;52.174;5.456;2024-02-14T12:20:47;19.25;;;14.75;;
42110;SDS011;27766;52.174;5.456;2024-02-14T12:25:49;19.83;;;14.85;;
42110;SDS011;27766;52.174;5.456;2024-02-14T12:28:16;16.88;;;13.93;;
42110;SDS011;27766;52.174;5.456;2024-02-14T12:33:13;18.08;;;13.73;;
42110;SDS011;27766;52.174;5.456;2024-02-14T12:35:43;15.70;;;12.98;;
42110;SDS011;27766;52.174;5.456;2024-02-14T12:40:50;14.48;;;11.88;;
42110;SDS011;27766;52.174;5.456;2024-02-14T12:43:20;14.52;;;12.15;;
42110;SDS011;27766;52.174;5.456;2024-02-14T12:45:48;16.25;;;12.52;;
42110;SDS011;27766;52.174;5.456;2024-02-14T12:48:22;15.23;;;11.88;;
42110;SDS011;27766;52.174;5.456;2024-02-14T12:50:55;12.32;;;10.80;;
42110;SDS011;27766;52.174;5.456;2024-02-14T12:53:23;12.15;;;10.88;;
42110;SDS011;27766;52.174;5.456;2024-02-14T12:55:51;13.38;;;10.40;;
42110;SDS011;27766;52.174;5.456;2024-02-14T12:58:18;12.35;;;10.25;;
42110;SDS011;27766;52.174;5.456;2024-02-14T13:00:46;11.38;;;9.73;;
42110;SDS011;27766;52.174;5.456;2024-02-14T13:03:14;10.00;;;8.63;;
42110;SDS011;27766;52.174;5.456;2024-02-14T13:05:44;15.10;;;8.77;;
42110;SDS011;27766;52.174;5.456;2024-02-14T13:08:15;8.95;;;7.70;;
42110;SDS011;27766;52.174;5.456;2024-02-14T13:10:43;9.57;;;8.10;;
42110;SDS011;27766;52.174;5.456;2024-02-14T13:13:11;10.38;;;7.53;;
42110;SDS011;27766;52.174;5.456;2024-02-14T13:15:38;10.35;;;8.70;;
42110;SDS011;27766;52.174;5.456;2024-02-14T13:18:07;9.18;;;7.10;;
42110;SDS011;27766;52.174;5.456;2024-02-14T13:20:34;7.93;;;6.68;;
42110;SDS011;27766;52.174;5.456;2024-02-14T13:23:02;8.30;;;6.15;;
42110;SDS011;27766;52.174;5.456;2024-02-14T13:25:30;8.43;;;6.63;;
42110;SDS011;27766;52.174;5.456;2024-02-14T13:27:57;7.88;;;6.78;;
42110;SDS011;27766;52.174;5.456;2024-02-14T13:30:25;8.68;;;6.97;;
42110;SDS011;27766;52.174;5.456;2024-02-14T13:32:52;9.70;;;7.32;;
42110;SDS011;27766;52.174;5.456;2024-02-14T13:35:20;8.55;;;7.20;;
42110;SDS011;27766;52.174;5.456;2024-02-14T13:37:47;9.25;;;7.32;;
42110;SDS011;27766;52.174;5.456;2024-02-14T13:40:14;10.10;;;8.45;;
42110;SDS011;27766;52.174;5.456;2024-02-14T13:42:41;9.68;;;7.88;;
42110;SDS011;27766;52.174;5.456;2024-02-14T13:45:09;10.45;;;8.38;;
42110;SDS011;27766;52.174;5.456;2024-02-14T13:47:40;9.82;;;8.32;;
42110;SDS011;27766;52.174;5.456;2024-02-14T13:50:09;11.57;;;8.88;;
42110;SDS011;27766;52.174;5.456;2024-02-14T13:52:36;8.45;;;7.65;;
42110;SDS011;27766;52.174;5.456;2024-02-14T13:55:04;10.20;;;8.45;;
42110;SDS011;27766;52.174;5.456;2024-02-14T13:57:38;9.73;;;8.02;;
42110;SDS011;27766;52.174;5.456;2024-02-14T14:00:07;10.48;;;8.60;;
42110;SDS011;27766;52.174;5.456;2024-02-14T14:02:38;11.67;;;8.83;;
42110;SDS011;27766;52.174;5.456;2024-02-14T14:05:09;9.70;;;8.52;;
42110;SDS011;27766;52.174;5.456;2024-02-14T14:07:44;10.70;;;8.20;;
42110;SDS011;27766;52.174;5.456;2024-02-14T14:10:24;7.80;;;7.10;;
42110;SDS011;27766;52.174;5.456;2024-02-14T14:12:55;9.38;;;7.60;;
42110;SDS011;27766;52.174;5.456;2024-02-14T14:15:23;8.23;;;7.03;;
42110;SDS011;27766;52.174;5.456;2024-02-14T14:17:51;8.60;;;7.35;;
42110;SDS011;27766;52.174;5.456;2024-02-14T14:20:19;9.25;;;8.02;;
42110;SDS011;27766;52.174;5.456;2024-02-14T14:22:47;9.93;;;7.60;;
42110;SDS011;27766;52.174;5.456;2024-02-14T14:25:14;9.38;;;8.07;;
42110;SDS011;27766;52.174;5.456;2024-02-14T14:27:42;10.73;;;9.07;;
42110;SDS011;27766;52.174;5.456;2024-02-14T14:30:11;13.48;;;9.77;;
42110;SDS011;27766;52.174;5.456;2024-02-14T14:32:40;11.13;;;9.55;;
42110;SDS011;27766;52.174;5.456;2024-02-14T14:35:10;8.88;;;7.88;;
42110;SDS011;27766;52.174;5.456;2024-02-14T14:37:38;9.20;;;7.72;;
42110;SDS011;27766;52.174;5.456;2024-02-14T14:40:06;8.45;;;7.65;;
42110;SDS011;27766;52.174;5.456;2024-02-14T14:42:35;10.88;;;9.07;;